Time;durP1;ratioP1;P1;durP2;ratioP2;P2;SDS_P1;SDS_P2;PMS_P1;PMS_P2;Temp;Humidity;BMP_temperature;BMP_pressure;BME280_temperature;BME280_humidity;BME280_pressure;Samples;Min_cycle;Max_cycle;Signal;HPM_P1;HPM_P2
2022/12/13 00:02:16;;;;;;;32.78;24.02;;;;;;;;;;4999177;28;20362;-78
2022/12/13 00:04:44;;;;;;;28.95;21.95;;;;;;;;;;4993212;28;20041;-79
2022/12/13 00:07:10;;;;;;;33.75;22.20;;;;;;;;;;5001152;28;20048;-79
2022/12/13 00:09:38;;;;;;;25.85;20.85;;;;;;;;;;4996188;28;20034;-79
2022/12/13 00:12:04;;;;;;;39.50;23.25;;;;;;;;;;4994579;28;20030;-79
2022/12/13 00:14:35;;;;;;;33.70;23.60;;;;;;;;;;4997924;28;20034;-78
2022/12/13 00:17:03;;;;;;;31.58;26.42;;;;;;;;;;4987645;28;20034;-79
2022/12/13 00:19:31;;;;;;;33.42;23.23;;;;;;;;;;4992931;28;20638;-79
2022/12/13 00:21:57;;;;;;;34.55;24.60;;;;;;;;;;4993515;28;20019;-78
2022/12/13 00:24:23;;;;;;;27.85;20.77;;;;;;;;;;4991609;28;20027;-79
2022/12/13 00:26:52;;;;;;;23.95;20.33;;;;;;;;;;5000515;28;20037;-79
2022/12/13 00:29:19;;;;;;;23.98;18.27;;;;;;;;;;4982651;28;20046;-78
2022/12/13 00:31:49;;;;;;;37.60;25.15;;;;;;;;;;4990047;28;20404;-79
2022/12/13 00:34:15;;;;;;;29.20;22.92;;;;;;;;;;4988368;28;20036;-79
2022/12/13 00:36:44;;;;;;;37.58;27.30;;;;;;;;;;4991816;28;20034;-78
2022/12/13 00:39:12;;;;;;;33.70;21.77;;;;;;;;;;4988578;28;20030;-78
2022/12/13 00:41:42;;;;;;;40.15;24.63;;;;;;;;;;4988094;28;20030;-79
2022/12/13 00:44:11;;;;;;;42.10;26.73;;;;;;;;;;4996819;28;20034;-79
2022/12/13 00:46:40;;;;;;;29.92;20.63;;;;;;;;;;4991769;28;20428;-78
2022/12/13 00:49:11;;;;;;;34.75;23.30;;;;;;;;;;4992717;28;20038;-78
2022/12/13 00:51:37;;;;;;;32.05;20.33;;;;;;;;;;4983724;28;20038;-78
2022/12/13 00:54:03;;;;;;;33.70;20.65;;;;;;;;;;4993865;28;20392;-78
2022/12/13 00:56:30;;;;;;;42.92;22.15;;;;;;;;;;4974399;28;20031;-79
2022/12/13 00:58:58;;;;;;;26.67;18.58;;;;;;;;;;4993035;28;20455;-78
2022/12/13 01:01:28;;;;;;;32.72;19.92;;;;;;;;;;4989340;28;20047;-77
2022/12/13 01:03:57;;;;;;;24.10;19.17;;;;;;;;;;4993470;28;20030;-78
2022/12/13 01:06:32;;;;;;;32.90;21.30;;;;;;;;;;4991363;28;20389;-78
2022/12/13 01:08:59;;;;;;;32.73;22.03;;;;;;;;;;4979656;28;20041;-79
2022/12/13 01:11:27;;;;;;;34.17;24.52;;;;;;;;;;4992374;28;20022;-79
2022/12/13 01:13:58;;;;;;;27.75;19.58;;;;;;;;;;5012243;23;20061;-71
2022/12/13 01:16:26;;;;;;;33.45;24.13;;;;;;;;;;5008781;28;20045;-71
2022/12/13 01:18:55;;;;;;;28.40;20.42;;;;;;;;;;5011363;28;20365;-71
2022/12/13 01:21:21;;;;;;;34.33;20.92;;;;;;;;;;5015342;28;20033;-72
2022/12/13 01:23:51;;;;;;;26.92;21.48;;;;;;;;;;5024637;28;20487;-71
2022/12/13 01:26:19;;;;;;;37.20;26.60;;;;;;;;;;5011367;28;20025;-71
2022/12/13 01:28:49;;;;;;;37.65;28.92;;;;;;;;;;5005424;28;20092;-71
2022/12/13 01:31:19;;;;;;;43.42;27.98;;;;;;;;;;5010760;28;20030;-71
2022/12/13 01:33:45;;;;;;;34.03;24.85;;;;;;;;;;5008221;28;20026;-71
2022/12/13 01:36:13;;;;;;;33.05;23.10;;;;;;;;;;5011148;28;20030;-71
2022/12/13 01:38:39;;;;;;;24.75;21.88;;;;;;;;;;5002673;28;20506;-71
2022/12/13 01:41:05;;;;;;;29.55;20.58;;;;;;;;;;5008079;28;20072;-71
2022/12/13 01:43:40;;;;;;;30.02;22.70;;;;;;;;;;5010742;28;20022;-72
2022/12/13 01:46:07;;;;;;;33.20;23.73;;;;;;;;;;5003996;28;20392;-71
2022/12/13 01:48:38;;;;;;;39.15;29.27;;;;;;;;;;5010354;28;20045;-70
2022/12/13 01:51:07;;;;;;;42.47;33.20;;;;;;;;;;5018137;28;20038;-71
2022/12/13 01:53:35;;;;;;;39.20;29.25;;;;;;;;;;5013172;28;20038;-71
2022/12/13 01:56:09;;;;;;;40.47;25.85;;;;;;;;;;5005152;28;20034;-71
2022/12/13 01:58:38;;;;;;;52.90;31.63;;;;;;;;;;5014974;28;20042;-71
2022/12/13 02:01:06;;;;;;;43.95;28.08;;;;;;;;;;5005253;28;20030;-71
2022/12/13 02:03:32;;;;;;;42.72;27.30;;;;;;;;;;5009534;28;20052;-71
2022/12/13 02:06:03;;;;;;;34.75;24.27;;;;;;;;;;5007290;28;20029;-71
2022/12/13 02:08:29;;;;;;;46.03;29.20;;;;;;;;;;5010088;28;20034;-72
2022/12/13 02:10:56;;;;;;;30.52;24.40;;;;;;;;;;5008903;28;20073;-71
2022/12/13 02:13:22;;;;;;;30.75;23.25;;;;;;;;;;4993125;28;20372;-70
2022/12/13 02:15:59;;;;;;;33.22;23.73;;;;;;;;;;4974839;28;20076;-70
2022/12/13 02:18:36;;;;;;;30.48;21.90;;;;;;;;;;5008019;28;20033;-71
2022/12/13 02:21:10;;;;;;;38.83;23.73;;;;;;;;;;5005915;28;20030;-71
2022/12/13 02:23:58;;;;;;;32.67;23.05;;;;;;;;;;5008876;28;20400;-71
2022/12/13 02:26:44;;;;;;;37.65;21.50;;;;;;;;;;5005031;28;20033;-72
2022/12/13 02:29:10;;;;;;;34.10;22.98;;;;;;;;;;4989190;28;20036;-71
2022/12/13 02:31:47;;;;;;;35.47;23.08;;;;;;;;;;5006436;28;20464;-72
2022/12/13 02:34:20;;;;;;;29.63;23.42;;;;;;;;;;5008681;28;20025;-71
2022/12/13 02:36:58;;;;;;;29.70;19.48;;;;;;;;;;5005961;28;20064;-72
2022/12/13 02:39:31;;;;;;;27.33;22.98;;;;;;;;;;5010375;28;20025;-71
2022/12/13 02:42:03;;;;;;;33.33;21.90;;;;;;;;;;5006274;28;20037;-72
2022/12/13 02:44:33;;;;;;;31.17;21.88;;;;;;;;;;5010912;28;20040;-72
2022/12/13 02:47:12;;;;;;;33.83;23.67;;;;;;;;;;5008227;28;20026;-72
2022/12/13 02:49:40;;;;;;;25.90;22.25;;;;;;;;;;5006727;28;20407;-72
2022/12/13 02:52:07;;;;;;;33.85;23.48;;;;;;;;;;5025087;28;20088;-72
2022/12/13 02:54:33;;;;;;;26.23;19.65;;;;;;;;;;5004609;28;20040;-72
2022/12/13 02:57:01;;;;;;;34.85;22.40;;;;;;;;;;5004538;28;20037;-72
2022/12/13 02:59:34;;;;;;;26.17;20.48;;;;;;;;;;5000482;28;20029;-72
2022/12/13 03:02:09;;;;;;;25.60;20.52;;;;;;;;;;5008059;28;20044;-72
2022/12/13 03:08:10;;;;;;;20.77;16.88;;;;;;;;;;5003328;28;20045;-72
2022/12/13 03:10:43;;;;;;;23.97;21.40;;;;;;;;;;5010881;28;20484;-72
2022/12/13 03:16:02;;;;;;;35.38;25.33;;;;;;;;;;5005841;28;20030;-73
2022/12/13 03:18:28;;;;;;;33.42;24.08;;;;;;;;;;5006825;28;20057;-73
2022/12/13 03:21:01;;;;;;;36.95;24.00;;;;;;;;;;5012344;28;20045;-72
2022/12/13 03:23:27;;;;;;;35.83;24.80;;;;;;;;;;5015584;28;20601;-73
2022/12/13 03:25:56;;;;;;;31.20;24.15;;;;;;;;;;5012105;28;20026;-70
2022/12/13 03:28:22;;;;;;;31.77;22.83;;;;;;;;;;5014193;28;20627;-72
2022/12/13 03:30:48;;;;;;;28.20;22.52;;;;;;;;;;5011340;28;20053;-72
2022/12/13 03:33:14;;;;;;;32.85;23.00;;;;;;;;;;5011142;28;20030;-72
2022/12/13 03:35:45;;;;;;;36.10;23.42;;;;;;;;;;5007251;28;20044;-71
2022/12/13 03:38:13;;;;;;;32.95;24.02;;;;;;;;;;5013493;28;20025;-71
2022/12/13 03:40:39;;;;;;;33.80;20.60;;;;;;;;;;5013911;28;20029;-72
2022/12/13 03:43:05;;;;;;;29.08;21.05;;;;;;;;;;5013110;28;20037;-72
2022/12/13 03:45:30;;;;;;;34.53;22.05;;;;;;;;;;5009138;28;20512;-71
2022/12/13 03:47:58;;;;;;;30.45;18.15;;;;;;;;;;5029957;28;20030;-72
2022/12/13 03:50:26;;;;;;;33.85;22.65;;;;;;;;;;5012397;28;20044;-71
2022/12/13 03:53:02;;;;;;;30.67;21.25;;;;;;;;;;5012836;28;20029;-72
2022/12/13 03:55:28;;;;;;;29.52;20.73;;;;;;;;;;5011153;28;20030;-72
2022/12/13 03:57:56;;;;;;;25.75;19.17;;;;;;;;;;5011143;28;20061;-72
2022/12/13 04:00:22;;;;;;;33.85;24.80;;;;;;;;;;5009654;28;20360;-72
2022/12/13 04:02:48;;;;;;;30.55;20.63;;;;;;;;;;5012777;28;20105;-72
2022/12/13 04:05:16;;;;;;;25.55;18.08;;;;;;;;;;5017416;28;20034;-72
2022/12/13 04:07:45;;;;;;;32.28;20.73;;;;;;;;;;5010829;28;20041;-71
2022/12/13 04:10:11;;;;;;;27.02;22.13;;;;;;;;;;4994316;28;20042;-71
2022/12/13 04:15:24;;;;;;;27.15;23.70;;;;;;;;;;5012693;28;20034;-71
2022/12/13 04:17:53;;;;;;;33.38;23.48;;;;;;;;;;5012179;28;20033;-72
2022/12/13 04:20:21;;;;;;;35.03;21.13;;;;;;;;;;5011400;28;20026;-72
2022/12/13 04:22:51;;;;;;;30.63;21.25;;;;;;;;;;5024379;28;20034;-71
2022/12/13 04:25:18;;;;;;;28.92;21.52;;;;;;;;;;5014212;28;20420;-72
2022/12/13 04:27:46;;;;;;;24.38;19.00;;;;;;;;;;4993197;28;20042;-72
2022/12/13 04:30:12;;;;;;;25.50;19.67;;;;;;;;;;5011068;28;20500;-71
2022/12/13 04:32:40;;;;;;;22.42;19.15;;;;;;;;;;5010761;28;20041;-72
2022/12/13 04:35:06;;;;;;;25.67;17.85;;;;;;;;;;5010614;28;20060;-72
2022/12/13 04:37:32;;;;;;;23.05;17.58;;;;;;;;;;5014646;28;20037;-71
2022/12/13 04:40:03;;;;;;;29.83;21.77;;;;;;;;;;5010434;28;20042;-71
2022/12/13 04:42:31;;;;;;;28.92;20.38;;;;;;;;;;5008487;28;20033;-71
2022/12/13 04:44:57;;;;;;;29.27;19.02;;;;;;;;;;5012147;28;20523;-72
2022/12/13 04:47:25;;;;;;;32.10;22.08;;;;;;;;;;5022788;28;20033;-71
2022/12/13 04:49:54;;;;;;;31.73;23.10;;;;;;;;;;5010350;28;20030;-72
2022/12/13 04:52:24;;;;;;;30.35;21.48;;;;;;;;;;5008389;28;20026;-71
2022/12/13 04:54:50;;;;;;;39.83;21.60;;;;;;;;;;5011402;28;20033;-72
2022/12/13 04:57:16;;;;;;;31.10;22.63;;;;;;;;;;5015345;28;20506;-72
2022/12/13 04:59:45;;;;;;;29.20;19.48;;;;;;;;;;5013235;28;20052;-71
2022/12/13 05:02:12;;;;;;;31.92;22.17;;;;;;;;;;5016402;28;20048;-72
2022/12/13 05:04:37;;;;;;;27.55;18.65;;;;;;;;;;5016865;28;20037;-71
2022/12/13 05:07:06;;;;;;;32.75;21.95;;;;;;;;;;5008115;28;20033;-71
2022/12/13 05:09:32;;;;;;;32.75;22.33;;;;;;;;;;5016383;28;20026;-71
2022/12/13 05:12:02;;;;;;;31.95;22.35;;;;;;;;;;5004766;28;20034;-71
2022/12/13 05:14:29;;;;;;;34.05;22.83;;;;;;;;;;5012086;28;20030;-71
2022/12/13 05:16:55;;;;;;;31.75;24.80;;;;;;;;;;5010800;28;20384;-71
2022/12/13 05:19:23;;;;;;;31.05;25.77;;;;;;;;;;5009188;28;20026;-71
2022/12/13 05:21:49;;;;;;;26.38;22.20;;;;;;;;;;5009319;28;20030;-72
2022/12/13 05:24:17;;;;;;;31.13;22.70;;;;;;;;;;5011582;28;20034;-71
2022/12/13 05:26:43;;;;;;;22.42;19.02;;;;;;;;;;5012758;28;20140;-72
2022/12/13 05:29:08;;;;;;;23.42;19.30;;;;;;;;;;5018662;28;20105;-72
2022/12/13 05:31:37;;;;;;;37.97;22.63;;;;;;;;;;5016601;28;20411;-72
2022/12/13 05:34:05;;;;;;;24.60;16.90;;;;;;;;;;5013437;28;20037;-72
2022/12/13 05:36:33;;;;;;;27.90;19.85;;;;;;;;;;5010188;28;20033;-72
2022/12/13 05:38:59;;;;;;;26.25;19.13;;;;;;;;;;5020344;28;20026;-72
2022/12/13 05:41:29;;;;;;;27.42;21.10;;;;;;;;;;5005090;28;20435;-72
2022/12/13 05:43:55;;;;;;;25.63;21.42;;;;;;;;;;5012717;28;20364;-72
2022/12/13 05:46:23;;;;;;;37.13;24.63;;;;;;;;;;5012829;28;20476;-72
2022/12/13 05:48:49;;;;;;;36.75;24.35;;;;;;;;;;5022930;28;20052;-72
2022/12/13 05:51:17;;;;;;;33.92;22.42;;;;;;;;;;5012161;28;20480;-73
2022/12/13 05:53:43;;;;;;;31.60;24.70;;;;;;;;;;5008319;28;20045;-72
2022/12/13 05:56:10;;;;;;;30.25;23.52;;;;;;;;;;5011473;28;20057;-71
2022/12/13 05:58:38;;;;;;;39.22;22.45;;;;;;;;;;5013779;28;20509;-71
2022/12/13 06:01:12;;;;;;;30.35;22.92;;;;;;;;;;5009337;28;20034;-71
2022/12/13 06:03:40;;;;;;;31.58;21.88;;;;;;;;;;5007662;28;20034;-72
2022/12/13 06:06:07;;;;;;;36.75;25.75;;;;;;;;;;5011426;28;20048;-71
2022/12/13 06:08:33;;;;;;;27.25;24.00;;;;;;;;;;5009785;28;20316;-71
2022/12/13 06:11:00;;;;;;;31.17;20.25;;;;;;;;;;5015451;28;20453;-71
2022/12/13 06:13:26;;;;;;;30.90;22.27;;;;;;;;;;5009718;28;20384;-71
2022/12/13 06:15:52;;;;;;;30.48;23.23;;;;;;;;;;5006688;28;20033;-71
2022/12/13 06:18:18;;;;;;;29.40;21.42;;;;;;;;;;5024693;28;20388;-71
2022/12/13 06:20:57;;;;;;;28.92;19.65;;;;;;;;;;5005266;28;20032;-71
2022/12/13 06:23:23;;;;;;;31.42;22.25;;;;;;;;;;5015093;28;20026;-71
2022/12/13 06:25:49;;;;;;;31.52;22.88;;;;;;;;;;5003108;28;20034;-71
2022/12/13 06:28:15;;;;;;;30.65;25.23;;;;;;;;;;5016353;28;20033;-72
2022/12/13 06:30:41;;;;;;;33.35;23.02;;;;;;;;;;5010139;28;20040;-71
2022/12/13 06:33:10;;;;;;;26.33;20.02;;;;;;;;;;5006366;28;20030;-71
2022/12/13 06:35:36;;;;;;;26.35;20.33;;;;;;;;;;5008082;28;20037;-71
2022/12/13 06:38:02;;;;;;;32.13;23.20;;;;;;;;;;5003310;28;20387;-71
2022/12/13 06:40:35;;;;;;;32.72;22.55;;;;;;;;;;5009323;28;20025;-72
2022/12/13 06:43:03;;;;;;;27.40;20.48;;;;;;;;;;5006183;28;20476;-71
2022/12/13 06:45:31;;;;;;;23.83;18.13;;;;;;;;;;5003516;28;20029;-72
2022/12/13 06:47:58;;;;;;;31.90;21.77;;;;;;;;;;4986398;28;20034;-71
2022/12/13 06:50:26;;;;;;;29.25;19.42;;;;;;;;;;4998723;28;20042;-71
2022/12/13 06:52:52;;;;;;;28.13;23.40;;;;;;;;;;5006517;28;20496;-71
2022/12/13 06:55:19;;;;;;;28.02;23.63;;;;;;;;;;5013698;28;20084;-71
2022/12/13 06:57:44;;;;;;;26.77;21.30;;;;;;;;;;5002549;28;20034;-71
2022/12/13 07:00:13;;;;;;;33.25;20.17;;;;;;;;;;5006353;28;20510;-72
2022/12/13 07:02:39;;;;;;;30.70;20.95;;;;;;;;;;5008472;28;20036;-71
2022/12/13 07:05:07;;;;;;;32.95;23.50;;;;;;;;;;5016456;28;20025;-70
2022/12/13 07:07:33;;;;;;;32.15;20.35;;;;;;;;;;5019402;28;20033;-70
2022/12/13 07:09:59;;;;;;;31.80;24.23;;;;;;;;;;5005002;28;20034;-71
2022/12/13 07:12:25;;;;;;;25.85;20.00;;;;;;;;;;5019397;23;20046;-79
2022/12/13 07:14:51;;;;;;;36.83;20.83;;;;;;;;;;5007149;28;20395;-78
2022/12/13 07:17:17;;;;;;;27.85;22.20;;;;;;;;;;4998842;28;20081;-79
2022/12/13 07:19:43;;;;;;;33.10;22.00;;;;;;;;;;4991689;28;20045;-79
2022/12/13 07:22:09;;;;;;;36.13;22.92;;;;;;;;;;5007777;28;20030;-78
2022/12/13 07:24:35;;;;;;;36.50;25.30;;;;;;;;;;5003419;28;20026;-77
2022/12/13 07:27:02;;;;;;;31.33;22.48;;;;;;;;;;4987179;28;20037;-79
2022/12/13 07:29:28;;;;;;;29.35;21.30;;;;;;;;;;5006135;28;20033;-78
2022/12/13 07:31:53;;;;;;;31.30;24.08;;;;;;;;;;4987400;28;20497;-79
2022/12/13 07:34:19;;;;;;;23.55;21.08;;;;;;;;;;5013585;28;20121;-79
2022/12/13 07:36:50;;;;;;;34.67;25.20;;;;;;;;;;5003404;28;20049;-78
2022/12/13 07:39:21;;;;;;;31.10;26.08;;;;;;;;;;5003135;28;20500;-78
2022/12/13 07:41:47;;;;;;;38.53;25.08;;;;;;;;;;4993119;28;20037;-78
2022/12/13 07:44:13;;;;;;;38.70;29.70;;;;;;;;;;5006631;28;20026;-78
2022/12/13 07:46:41;;;;;;;34.42;25.25;;;;;;;;;;5002955;28;20037;-78
2022/12/13 07:49:12;;;;;;;35.55;26.60;;;;;;;;;;5001464;28;20473;-79
2022/12/13 07:51:40;;;;;;;35.75;25.15;;;;;;;;;;4998521;28;20030;-79
2022/12/13 07:54:07;;;;;;;36.97;24.90;;;;;;;;;;5010451;28;20034;-78
2022/12/13 07:56:37;;;;;;;43.70;27.92;;;;;;;;;;5005345;28;20022;-80
2022/12/13 07:59:03;;;;;;;33.63;27.38;;;;;;;;;;5005185;28;20423;-78
2022/12/13 08:01:30;;;;;;;35.88;27.60;;;;;;;;;;5006709;28;20053;-79
2022/12/13 08:03:56;;;;;;;38.85;26.40;;;;;;;;;;5003518;28;20034;-78
2022/12/13 08:06:22;;;;;;;35.53;29.75;;;;;;;;;;5009463;28;20021;-77
2022/12/13 08:08:49;;;;;;;41.47;27.80;;;;;;;;;;5008670;28;20041;-78
2022/12/13 08:11:18;;;;;;;38.03;29.17;;;;;;;;;;5002476;28;20033;-78
2022/12/13 08:13:44;;;;;;;41.80;31.55;;;;;;;;;;5003928;28;20038;-78
2022/12/13 08:16:16;;;;;;;43.25;31.63;;;;;;;;;;5003480;28;20045;-78
2022/12/13 08:18:46;;;;;;;35.78;30.88;;;;;;;;;;5009497;28;20073;-79
2022/12/13 08:21:12;;;;;;;37.80;31.23;;;;;;;;;;5000173;28;20030;-79
2022/12/13 08:23:40;;;;;;;42.72;31.30;;;;;;;;;;5007333;28;20034;-79
2022/12/13 08:26:08;;;;;;;43.35;29.67;;;;;;;;;;5008933;28;20027;-79
2022/12/13 08:28:35;;;;;;;39.60;29.95;;;;;;;;;;5010523;28;20026;-79
2022/12/13 08:31:10;;;;;;;34.47;26.02;;;;;;;;;;5006303;28;20037;-78
2022/12/13 08:33:36;;;;;;;35.03;20.30;;;;;;;;;;5005539;28;20491;-77
2022/12/13 08:36:12;;;;;;;31.67;24.45;;;;;;;;;;5006795;28;20026;-79
2022/12/13 08:38:38;;;;;;;26.65;21.10;;;;;;;;;;5011777;28;20042;-79
2022/12/13 08:41:08;;;;;;;27.17;17.45;;;;;;;;;;4996208;28;20030;-79
2022/12/13 08:43:36;;;;;;;20.42;17.45;;;;;;;;;;4986128;28;20041;-79
2022/12/13 08:46:03;;;;;;;27.38;18.98;;;;;;;;;;4986057;28;20065;-79
2022/12/13 08:48:29;;;;;;;27.67;16.88;;;;;;;;;;4984897;28;20030;-78
2022/12/13 08:50:59;;;;;;;21.27;16.83;;;;;;;;;;5007370;28;20038;-79
2022/12/13 08:53:27;;;;;;;18.90;16.90;;;;;;;;;;5000355;28;20042;-78
2022/12/13 08:55:53;;;;;;;23.30;16.05;;;;;;;;;;5006591;28;20042;-78
2022/12/13 08:58:21;;;;;;;20.55;16.40;;;;;;;;;;5010240;28;20034;-79
2022/12/13 09:00:51;;;;;;;22.33;13.27;;;;;;;;;;5002268;28;20040;-78
2022/12/13 09:03:19;;;;;;;22.77;15.02;;;;;;;;;;5011051;28;20030;-79
2022/12/13 09:05:45;;;;;;;17.80;12.48;;;;;;;;;;5006223;28;20101;-79
2022/12/13 09:08:11;;;;;;;19.30;14.50;;;;;;;;;;5022820;28;20138;-79
2022/12/13 09:10:41;;;;;;;18.25;15.07;;;;;;;;;;5006252;28;20480;-79
2022/12/13 09:13:09;;;;;;;17.00;14.82;;;;;;;;;;5009638;28;20518;-79
2022/12/13 09:15:42;;;;;;;17.92;13.30;;;;;;;;;;5007682;28;20034;-79
2022/12/13 09:18:10;;;;;;;17.65;12.07;;;;;;;;;;4990628;28;20484;-78
2022/12/13 09:20:41;;;;;;;16.75;14.45;;;;;;;;;;5009733;28;20038;-79
2022/12/13 09:23:07;;;;;;;19.45;14.77;;;;;;;;;;5012023;28;20022;-79
2022/12/13 09:25:35;;;;;;;17.60;14.32;;;;;;;;;;5007229;28;20025;-79
2022/12/13 09:28:01;;;;;;;16.15;12.75;;;;;;;;;;5010750;28;20038;-79
2022/12/13 09:30:29;;;;;;;21.77;14.32;;;;;;;;;;5002126;28;20087;-79
2022/12/13 09:33:00;;;;;;;25.13;16.13;;;;;;;;;;5002544;28;20393;-80
2022/12/13 09:35:29;;;;;;;19.90;14.15;;;;;;;;;;5003132;28;20037;-78
2022/12/13 09:37:59;;;;;;;17.52;12.95;;;;;;;;;;5002147;28;20034;-79
2022/12/13 09:40:28;;;;;;;20.33;14.52;;;;;;;;;;5002013;28;20053;-79
2022/12/13 09:42:56;;;;;;;19.83;14.70;;;;;;;;;;5017862;28;20050;-79
2022/12/13 09:45:25;;;;;;;17.50;14.75;;;;;;;;;;5006900;28;20045;-78
2022/12/13 09:47:54;;;;;;;17.45;11.35;;;;;;;;;;4999251;28;20053;-78
2022/12/13 09:50:25;;;;;;;20.90;13.40;;;;;;;;;;4979759;28;20043;-79
2022/12/13 09:52:57;;;;;;;19.17;13.93;;;;;;;;;;4999285;28;20242;-78
2022/12/13 09:55:24;;;;;;;20.42;12.40;;;;;;;;;;5003272;28;20053;-79
2022/12/13 09:57:51;;;;;;;19.52;13.82;;;;;;;;;;5005668;28;20030;-78
2022/12/13 10:00:20;;;;;;;16.30;11.30;;;;;;;;;;5001425;28;20031;-79
2022/12/13 10:02:52;;;;;;;20.23;12.38;;;;;;;;;;5000311;28;20025;-80
2022/12/13 10:05:25;;;;;;;18.90;14.55;;;;;;;;;;5008394;28;20041;-80
2022/12/13 10:07:52;;;;;;;26.48;14.40;;;;;;;;;;4999622;28;20046;-78
2022/12/13 10:10:18;;;;;;;19.65;12.90;;;;;;;;;;4999035;28;20370;-79
2022/12/13 10:13:06;;;;;;;15.35;12.48;;;;;;;;;;5004640;28;20042;-79
2022/12/13 10:15:32;;;;;;;18.02;12.50;;;;;;;;;;5006259;28;20030;-79
2022/12/13 10:18:00;;;;;;;17.85;14.43;;;;;;;;;;5003155;28;20029;-79
2022/12/13 10:20:27;;;;;;;16.38;14.45;;;;;;;;;;4992734;28;20026;-79
2022/12/13 10:22:53;;;;;;;16.83;12.68;;;;;;;;;;4989131;28;20034;-79
2022/12/13 10:25:41;;;;;;;16.25;12.15;;;;;;;;;;5008611;28;20088;-80
2022/12/13 10:28:09;;;;;;;18.40;12.80;;;;;;;;;;4998792;28;20037;-79
2022/12/13 10:30:42;;;;;;;18.58;13.65;;;;;;;;;;5008745;28;20554;-79
2022/12/13 10:33:21;;;;;;;22.58;12.88;;;;;;;;;;5005503;28;20064;-79
2022/12/13 10:36:00;;;;;;;18.42;13.70;;;;;;;;;;5015172;28;20053;-80
2022/12/13 10:38:29;;;;;;;19.17;12.57;;;;;;;;;;5004862;28;20032;-79
2022/12/13 10:40:57;;;;;;;15.93;10.23;;;;;;;;;;4999083;28;20030;-79
2022/12/13 10:43:27;;;;;;;15.95;12.63;;;;;;;;;;5002673;28;20030;-79
2022/12/13 10:45:59;;;;;;;17.75;13.80;;;;;;;;;;4999206;28;20384;-80
2022/12/13 10:48:39;;;;;;;16.35;12.82;;;;;;;;;;5004062;28;20030;-78
2022/12/13 10:51:12;;;;;;;16.15;12.27;;;;;;;;;;4990102;28;20045;-79
2022/12/13 10:53:48;;;;;;;18.42;11.25;;;;;;;;;;4991045;28;20033;-80
2022/12/13 10:56:22;;;;;;;12.77;10.38;;;;;;;;;;5007110;28;20476;-84
2022/12/13 10:58:50;;;;;;;23.48;13.48;;;;;;;;;;5008075;28;20034;-80
2022/12/13 11:01:19;;;;;;;15.07;11.95;;;;;;;;;;5001794;28;20041;-80
2022/12/13 11:03:57;;;;;;;18.67;11.73;;;;;;;;;;5011231;28;20486;-80
2022/12/13 11:06:26;;;;;;;21.17;13.10;;;;;;;;;;5007400;28;20030;-79
2022/12/13 11:08:54;;;;;;;17.95;11.95;;;;;;;;;;4997374;28;20042;-80
2022/12/13 11:11:29;;;;;;;15.50;13.50;;;;;;;;;;5002670;28;20430;-79
2022/12/13 11:14:00;;;;;;;16.77;12.88;;;;;;;;;;5002368;28;20034;-80
2022/12/13 11:16:41;;;;;;;12.38;10.55;;;;;;;;;;5003020;28;20042;-80
2022/12/13 11:19:15;;;;;;;19.00;12.25;;;;;;;;;;4989398;28;20403;-80
2022/12/13 11:21:48;;;;;;;18.17;13.23;;;;;;;;;;4989438;28;20038;-80
2022/12/13 11:24:21;;;;;;;15.93;11.20;;;;;;;;;;5003174;28;20026;-79
2022/12/13 11:26:54;;;;;;;16.75;11.60;;;;;;;;;;4997622;28;20407;-80
2022/12/13 11:29:26;;;;;;;15.55;11.18;;;;;;;;;;4998450;28;20038;-80
2022/12/13 11:32:03;;;;;;;13.57;10.55;;;;;;;;;;4984329;28;20029;-81
2022/12/13 11:34:44;;;;;;;12.20;11.05;;;;;;;;;;5001357;28;20026;-79
2022/12/13 11:37:29;;;;;;;16.25;12.30;;;;;;;;;;5002588;28;20042;-79
2022/12/13 11:40:01;;;;;;;14.25;10.52;;;;;;;;;;4986091;28;20026;-80
2022/12/13 11:42:52;;;;;;;16.95;11.95;;;;;;;;;;5003433;28;20026;-79
2022/12/13 11:45:32;;;;;;;14.25;10.73;;;;;;;;;;5003123;28;20042;-80
2022/12/13 11:48:12;;;;;;;18.48;11.43;;;;;;;;;;5017936;28;20022;-80
2022/12/13 11:50:37;;;;;;;18.80;13.88;;;;;;;;;;5004992;28;20396;-80
2022/12/13 11:53:12;;;;;;;14.73;10.18;;;;;;;;;;5009951;28;20030;-80
2022/12/13 11:55:44;;;;;;;13.80;10.52;;;;;;;;;;5008056;28;20044;-80
2022/12/13 11:58:24;;;;;;;16.20;10.38;;;;;;;;;;5002327;28;20041;-80
2022/12/13 12:01:00;;;;;;;17.50;11.90;;;;;;;;;;5003100;28;20400;-80
2022/12/13 12:03:36;;;;;;;16.42;11.55;;;;;;;;;;5007488;28;20040;-79
2022/12/13 12:06:17;;;;;;;16.15;10.82;;;;;;;;;;5010572;28;20014;-79
2022/12/13 12:09:01;;;;;;;13.20;11.88;;;;;;;;;;5004615;28;20030;-78
2022/12/13 12:11:32;;;;;;;20.48;11.43;;;;;;;;;;5005106;28;20503;-78
2022/12/13 12:14:04;;;;;;;12.95;11.68;;;;;;;;;;5016352;28;20038;-79
2022/12/13 12:16:37;;;;;;;16.92;11.00;;;;;;;;;;5003391;28;20034;-79
2022/12/13 12:19:08;;;;;;;15.98;11.70;;;;;;;;;;5024138;28;20038;-79
2022/12/13 12:21:34;;;;;;;23.08;11.93;;;;;;;;;;5000377;28;20469;-78
2022/12/13 12:24:04;;;;;;;13.80;11.80;;;;;;;;;;4985010;28;20042;-78
2022/12/13 12:26:41;;;;;;;15.77;10.80;;;;;;;;;;5008981;28;20536;-78
2022/12/13 12:29:21;;;;;;;16.17;13.02;;;;;;;;;;5006367;28;20041;-79
2022/12/13 12:31:48;;;;;;;14.45;10.82;;;;;;;;;;5010817;28;20034;-79
2022/12/13 12:34:26;;;;;;;16.00;11.88;;;;;;;;;;5007373;28;20040;-78
2022/12/13 12:36:57;;;;;;;15.27;10.68;;;;;;;;;;5005363;28;20056;-79
2022/12/13 12:39:24;;;;;;;14.13;11.95;;;;;;;;;;5005145;28;20484;-78
2022/12/13 12:41:56;;;;;;;17.80;13.10;;;;;;;;;;5009105;28;20038;-79
2022/12/13 12:44:32;;;;;;;15.85;11.63;;;;;;;;;;5008664;28;20484;-79
2022/12/13 12:47:04;;;;;;;15.95;12.30;;;;;;;;;;5003960;28;20052;-79
2022/12/13 12:49:48;;;;;;;13.30;9.73;;;;;;;;;;5006871;28;20033;-79
2022/12/13 12:52:14;;;;;;;;;;;;;;;;;;5009336;28;20484;-78
2022/12/13 12:54:51;;;;;;;14.18;11.48;;;;;;;;;;5008119;28;20611;-78
2022/12/13 12:57:24;;;;;;;15.48;9.38;;;;;;;;;;5004948;28;20033;-78
2022/12/13 12:59:52;;;;;;;38.85;25.83;;;;;;;;;;5002916;28;20036;-77
2022/12/13 13:02:24;;;;;;;13.35;10.95;;;;;;;;;;5006269;28;20021;-78
2022/12/13 13:04:55;;;;;;;17.58;10.98;;;;;;;;;;5010424;28;20026;-78
2022/12/13 13:07:45;;;;;;;12.68;11.13;;;;;;;;;;5013708;28;20471;-76
2022/12/13 13:10:16;;;;;;;13.50;9.25;;;;;;;;;;5003137;28;20034;-77
2022/12/13 13:12:44;;;;;;;14.80;10.00;;;;;;;;;;5028207;23;20066;-76
2022/12/13 13:15:29;;;;;;;16.65;12.00;;;;;;;;;;4987093;28;20037;-72
2022/12/13 13:17:56;;;;;;;12.48;10.90;;;;;;;;;;5005100;28;20033;-72
2022/12/13 13:20:25;;;;;;;13.00;11.25;;;;;;;;;;4989097;28;20041;-72
2022/12/13 13:22:53;;;;;;;19.92;13.68;;;;;;;;;;4991134;28;20037;-72
2022/12/13 13:25:21;;;;;;;11.88;10.75;;;;;;;;;;4997150;28;20038;-72
2022/12/13 13:27:49;;;;;;;17.73;13.73;;;;;;;;;;4987358;28;20030;-72
2022/12/13 13:30:17;;;;;;;14.20;10.82;;;;;;;;;;5004802;28;20041;-72
2022/12/13 13:32:47;;;;;;;15.50;10.50;;;;;;;;;;4988194;28;20038;-72
2022/12/13 13:35:29;;;;;;;20.80;10.70;;;;;;;;;;4991779;28;20022;-72
2022/12/13 13:37:56;;;;;;;13.77;10.93;;;;;;;;;;4975413;28;20046;-72
2022/12/13 13:40:42;;;;;;;16.85;11.27;;;;;;;;;;4989280;28;20030;-72
2022/12/13 13:43:08;;;;;;;16.10;9.52;;;;;;;;;;4984219;28;20027;-72
2022/12/13 13:45:55;;;;;;;15.80;10.85;;;;;;;;;;4985476;28;20084;-72
2022/12/13 13:48:40;;;;;;;12.95;11.02;;;;;;;;;;4985022;28;20500;-72
2022/12/13 13:51:24;;;;;;;14.60;11.65;;;;;;;;;;4991476;28;20035;-72
2022/12/13 13:54:09;;;;;;;14.82;11.57;;;;;;;;;;4989750;28;20053;-72
2022/12/13 13:56:41;;;;;;;13.75;12.07;;;;;;;;;;4991065;28;20384;-72
2022/12/13 13:59:21;;;;;;;19.70;14.70;;;;;;;;;;4990411;28;20034;-72
2022/12/13 14:02:06;;;;;;;11.32;8.63;;;;;;;;;;4998069;28;20041;-72
2022/12/13 14:04:42;;;;;;;14.15;9.93;;;;;;;;;;5008182;28;20033;-72
2022/12/13 14:07:20;;;;;;;13.95;11.43;;;;;;;;;;5005315;28;20030;-72
2022/12/13 14:10:11;;;;;;;20.85;14.20;;;;;;;;;;4990283;28;20031;-72
2022/12/13 14:12:37;;;;;;;14.70;12.68;;;;;;;;;;5005155;28;20053;-72
2022/12/13 14:15:21;;;;;;;12.32;10.00;;;;;;;;;;4996792;28;20030;-72
2022/12/13 14:17:47;;;;;;;14.77;11.00;;;;;;;;;;4989500;28;20046;-72
2022/12/13 14:20:34;;;;;;;13.45;10.52;;;;;;;;;;4989775;28;20489;-72
2022/12/13 14:23:04;;;;;;;24.10;11.25;;;;;;;;;;4989698;28;20030;-72
2022/12/13 14:25:42;;;;;;;16.85;11.07;;;;;;;;;;4993967;28;20034;-72
2022/12/13 14:28:09;;;;;;;16.30;11.00;;;;;;;;;;4984944;28;20035;-72
2022/12/13 14:30:38;;;;;;;13.40;10.57;;;;;;;;;;4988329;28;20392;-72
2022/12/13 14:33:12;;;;;;;18.92;14.98;;;;;;;;;;4984787;28;20034;-72
2022/12/13 14:35:48;;;;;;;15.07;12.90;;;;;;;;;;4991632;28;20042;-72
2022/12/13 14:38:41;;;;;;;15.20;11.02;;;;;;;;;;4983454;28;20026;-72
2022/12/13 14:41:13;;;;;;;15.15;11.15;;;;;;;;;;4978731;28;20054;-72
2022/12/13 14:43:44;;;;;;;13.18;11.63;;;;;;;;;;4993562;28;20034;-72
2022/12/13 14:46:14;;;;;;;12.93;10.27;;;;;;;;;;5003774;28;20041;-72